Time;durP1;ratioP1;P1;durP2;ratioP2;P2;SDS_P1;SDS_P2;PMS_P1;PMS_P2;Temp;Humidity;BMP_temperature;BMP_pressure;BME280_temperature;BME280_humidity;BME280_pressure;Samples;Min_cycle;Max_cycle;Signal;HPM_P1;HPM_P2
2022/02/18 00:00:17;;;;;;;;;;;8.00;99.90;;;;;;5038001;28;19909;-73
2022/02/18 00:02:43;;;;;;;;;;;8.00;99.90;;;;;;5055647;28;19923;-73
2022/02/18 00:05:09;;;;;;;;;;;8.10;99.90;;;;;;5071193;28;19909;-73
2022/02/18 00:07:34;;;;;;;;;;;7.90;99.90;;;;;;5037686;28;19912;-73
2022/02/18 00:10:00;;;;;;;;;;;7.90;99.90;;;;;;5054588;28;19916;-73
2022/02/18 00:12:26;;;;;;;;;;;7.90;99.90;;;;;;5071078;28;19913;-73
2022/02/18 00:14:51;;;;;;;;;;;7.90;99.90;;;;;;5054370;28;19909;-73
2022/02/18 00:17:17;;;;;;;;;;;7.90;99.90;;;;;;5055462;28;19912;-73
2022/02/18 00:19:43;;;;;;;;;;;7.90;99.90;;;;;;5070874;28;19908;-73
2022/02/18 00:22:08;;;;;;;;;;;7.80;99.90;;;;;;5055671;28;20390;-73
2022/02/18 00:24:34;;;;;;;;;;;7.90;99.90;;;;;;5055332;28;19909;-73
2022/02/18 00:26:59;;;;;;;;;;;7.90;99.90;;;;;;5037396;28;19932;-73
2022/02/18 00:29:25;;;;;;;;;;;7.80;99.90;;;;;;5054213;28;19909;-73
2022/02/18 00:31:51;;;;;;;;;;;7.80;99.90;;;;;;5070694;28;19958;-73
2022/02/18 00:34:16;;;;;;;;;;;7.70;99.90;;;;;;5053939;28;20379;-73
2022/02/18 00:36:42;;;;;;;;;;;7.70;99.90;;;;;;5055130;28;19908;-73
2022/02/18 00:39:07;;;;;;;;;;;7.70;99.90;;;;;;5055231;28;19935;-73
2022/02/18 00:41:33;;;;;;;;;;;7.60;99.90;;;;;;5070577;28;19916;-73
2022/02/18 00:43:59;;;;;;;;;;;7.70;99.90;;;;;;5054998;28;20387;-73
2022/02/18 00:46:25;;;;;;;;;;;7.70;99.90;;;;;;5070264;28;20023;-73
2022/02/18 00:48:50;;;;;;;;;;;7.70;99.90;;;;;;5055017;28;19948;-73
2022/02/18 00:51:16;;;;;;;;;;;7.70;99.90;;;;;;5054985;28;19912;-73
2022/02/18 00:53:42;;;;;;;;;;;7.60;99.90;;;;;;5054876;28;19932;-73
2022/02/18 00:56:07;;;;;;;;;;;7.80;99.90;;;;;;5054806;28;19909;-73
2022/02/18 00:58:33;;;;;;;;;;;7.80;99.90;;;;;;5053655;28;19909;-73
2022/02/18 01:00:59;;;;;;;;;;;7.70;99.90;;;;;;5037130;28;19986;-73
2022/02/18 01:03:24;;;;;;;;;;;7.70;99.90;;;;;;5054577;28;19956;-73
2022/02/18 01:05:50;;;;;;;;;;;7.80;99.90;;;;;;5053298;28;19941;-74
2022/02/18 01:08:16;;;;;;;;;;;7.80;99.90;;;;;;5054692;28;20034;-73
2022/02/18 01:10:42;;;;;;;;;;;7.80;99.90;;;;;;5053407;28;20019;-73
2022/02/18 01:13:08;;;;;;;;;;;7.90;99.90;;;;;;5054515;28;19917;-73
2022/02/18 01:15:33;;;;;;;;;;;7.80;99.90;;;;;;5069868;28;19908;-74
2022/02/18 01:17:59;;;;;;;;;;;7.80;99.90;;;;;;5036551;28;19916;-73
2022/02/18 01:20:25;;;;;;;;;;;7.80;99.90;;;;;;5053181;28;20364;-73
2022/02/18 01:22:50;;;;;;;;;;;7.70;99.90;;;;;;5053076;28;19913;-73
2022/02/18 01:25:16;;;;;;;;;;;7.70;99.90;;;;;;5036458;28;19909;-73
2022/02/18 01:27:42;;;;;;;;;;;7.90;99.90;;;;;;5052944;28;19909;-73
2022/02/18 01:30:09;;;;;;;;;;;7.80;99.90;;;;;;5054285;28;20444;-73
2022/02/18 01:32:35;;;;;;;;;;;7.80;99.90;;;;;;5036126;28;19913;-73
2022/02/18 01:35:02;;;;;;;;;;;7.80;99.90;;;;;;5054137;28;19909;-73
2022/02/18 01:37:27;;;;;;;;;;;7.70;99.90;;;;;;5054021;28;19951;-73
2022/02/18 01:39:53;;;;;;;;;;;7.60;99.90;;;;;;5036181;28;20368;-73
2022/02/18 01:42:19;;;;;;;;;;;7.60;99.90;;;;;;5052729;28;19917;-73
2022/02/18 01:44:46;;;;;;;;;;;7.60;99.90;;;;;;5053919;28;19913;-73
2022/02/18 01:47:15;;;;;;;;;;;7.60;99.90;;;;;;5053803;28;19909;-73
2022/02/18 01:49:44;;;;;;;;;;;7.60;99.90;;;;;;5053748;28;19917;-73
2022/02/18 01:52:10;;;;;;;;;;;7.60;99.90;;;;;;5053872;28;19908;-73
2022/02/18 01:54:36;;;;;;;;;;;7.50;99.90;;;;;;5052401;28;19909;-73
2022/02/18 01:57:01;;;;;;;;;;;7.50;99.90;;;;;;5053781;28;20020;-73
2022/02/18 01:59:28;;;;;;;;;;;7.50;99.90;;;;;;5052509;28;19916;-73
2022/02/18 02:01:54;;;;;;;;;;;7.50;99.90;;;;;;5053592;28;19978;-73
2022/02/18 02:04:19;;;;;;;;;;;7.50;99.90;;;;;;5053487;28;19924;-73
2022/02/18 02:06:45;;;;;;;;;;;7.60;99.90;;;;;;5053513;28;19916;-73
2022/02/18 02:09:13;;;;;;;;;;;7.70;99.90;;;;;;5053190;28;19909;-73
2022/02/18 02:11:38;;;;;;;;;;;7.60;99.90;;;;;;5052047;28;20265;-73
2022/02/18 02:14:05;;;;;;;;;;;7.60;99.90;;;;;;5052080;28;19924;-73
2022/02/18 02:16:31;;;;;;;;;;;7.60;99.90;;;;;;5053183;28;19955;-73
2022/02/18 02:18:56;;;;;;;;;;;7.70;99.90;;;;;;5053254;28;19909;-73
2022/02/18 02:21:25;;;;;;;;;;;7.70;99.90;;;;;;5051888;28;19909;-73
2022/02/18 02:23:51;;;;;;;;;;;7.70;99.90;;;;;;5053138;28;19912;-73
2022/02/18 02:26:17;;;;;;;;;;;7.70;99.90;;;;;;5053043;28;19935;-73
2022/02/18 02:28:42;;;;;;;;;;;7.80;99.90;;;;;;5052960;28;20426;-73
2022/02/18 02:31:08;;;;;;;;;;;7.70;99.90;;;;;;5052905;28;19909;-73
2022/02/18 02:33:33;;;;;;;;;;;7.70;99.90;;;;;;5053048;28;19939;-73
2022/02/18 02:35:59;;;;;;;;;;;7.70;99.90;;;;;;5052959;28;20011;-73
2022/02/18 02:38:25;;;;;;;;;;;7.70;99.90;;;;;;5051829;28;19954;-73
2022/02/18 02:40:51;;;;;;;;;;;7.70;99.90;;;;;;5052870;28;20334;-73
2022/02/18 02:43:16;;;;;;;;;;;7.70;99.90;;;;;;5051509;28;19913;-73
2022/02/18 02:45:42;;;;;;;;;;;7.70;99.90;;;;;;5052750;28;19908;-73
2022/02/18 02:48:08;;;;;;;;;;;7.80;99.90;;;;;;5035002;28;19962;-74
2022/02/18 02:50:34;;;;;;;;;;;7.90;99.90;;;;;;5051511;28;19916;-73
2022/02/18 02:52:59;;;;;;;;;;;7.90;99.90;;;;;;5052643;28;19915;-73
2022/02/18 02:55:25;;;;;;;;;;;7.80;99.90;;;;;;5067904;28;19913;-74
2022/02/18 02:57:50;;;;;;;;;;;7.80;99.90;;;;;;5051248;28;19935;-73
2022/02/18 03:00:16;;;;;;;;;;;7.70;99.90;;;;;;5068008;28;20475;-73
2022/02/18 03:02:43;;;;;;;;;;;7.70;99.90;;;;;;5052386;28;19920;-73
2022/02/18 03:05:09;;;;;;;;;;;7.70;99.90;;;;;;5034589;28;19909;-73
2022/02/18 03:07:34;;;;;;;;;;;7.80;99.90;;;;;;5067729;28;20304;-73
2022/02/18 03:10:00;;;;;;;;;;;7.70;99.90;;;;;;5052392;28;19916;-73
2022/02/18 03:12:26;;;;;;;;;;;7.80;99.90;;;;;;5051512;28;19909;-73
2022/02/18 03:14:51;;;;;;;;;;;7.80;99.90;;;;;;5052234;28;19991;-73
2022/02/18 03:17:17;;;;;;;;;;;7.70;99.90;;;;;;5052283;28;20358;-73
2022/02/18 03:19:43;;;;;;;;;;;7.70;99.90;;;;;;5051130;28;19981;-73
2022/02/18 03:22:09;;;;;;;;;;;7.70;99.90;;;;;;5051625;28;19923;-73
2022/02/18 03:24:35;;;;;;;;;;;7.70;99.90;;;;;;5052286;28;19936;-73
2022/02/18 03:27:01;;;;;;;;;;;7.70;99.90;;;;;;5050947;28;20395;-73
2022/02/18 03:29:26;;;;;;;;;;;7.80;99.90;;;;;;5052487;28;19909;-73
2022/02/18 03:31:53;;;;;;;;;;;7.90;99.90;;;;;;5050832;28;19950;-74
2022/02/18 03:34:19;;;;;;;;;;;7.90;99.90;;;;;;5050905;28;20383;-73
2022/02/18 03:36:45;;;;;;;;;;;7.90;99.90;;;;;;5052035;28;20412;-73
2022/02/18 03:39:10;;;;;;;;;;;7.90;99.90;;;;;;5052193;28;19916;-73
2022/02/18 03:41:36;;;;;;;;;;;7.90;99.90;;;;;;5050951;28;19913;-73
2022/02/18 03:44:02;;;;;;;;;;;7.90;99.90;;;;;;5052052;28;19916;-73
2022/02/18 03:46:27;;;;;;;;;;;7.90;99.90;;;;;;5052025;28;20288;-73
2022/02/18 03:48:53;;;;;;;;;;;7.80;99.90;;;;;;5067296;28;19909;-73
2022/02/18 03:51:19;;;;;;;;;;;8.00;99.90;;;;;;5050847;28;20349;-73
2022/02/18 03:53:45;;;;;;;;;;;7.90;99.90;;;;;;5050714;28;20291;-73
2022/02/18 03:56:12;;;;;;;;;;;8.00;99.90;;;;;;5052088;28;19916;-73
2022/02/18 03:58:38;;;;;;;;;;;8.00;99.90;;;;;;5051949;28;19909;-73
2022/02/18 04:01:03;;;;;;;;;;;8.00;99.90;;;;;;5052093;28;19912;-73
2022/02/18 04:03:29;;;;;;;;;;;8.10;99.90;;;;;;5050646;28;20009;-73
2022/02/18 04:05:54;;;;;;;;;;;8.10;99.90;;;;;;5051870;28;20421;-73
2022/02/18 04:08:20;;;;;;;;;;;8.10;99.90;;;;;;5067657;28;19940;-73
2022/02/18 04:10:46;;;;;;;;;;;8.00;99.90;;;;;;5052100;28;19908;-73
2022/02/18 04:13:11;;;;;;;;;;;8.00;99.90;;;;;;5050500;28;19919;-73
2022/02/18 04:15:37;;;;;;;;;;;8.00;99.90;;;;;;5033856;28;20410;-73
2022/02/18 04:18:03;;;;;;;;;;;8.00;99.90;;;;;;5033871;28;19913;-73
2022/02/18 04:20:28;;;;;;;;;;;8.00;99.90;;;;;;5051780;28;19909;-73
2022/02/18 04:22:54;;;;;;;;;;;8.00;99.90;;;;;;5033836;28;19917;-73
2022/02/18 04:25:19;;;;;;;;;;;8.00;99.90;;;;;;5050485;28;19927;-73
2022/02/18 04:27:55;;;;;;;;;;;8.00;99.90;;;;;;5066967;28;20288;-73
2022/02/18 04:30:21;;;;;;;;;;;8.00;99.90;;;;;;5050542;28;19909;-73
2022/02/18 04:32:47;;;;;;;;;;;8.00;99.90;;;;;;5052773;28;20416;-73
2022/02/18 04:35:13;;;;;;;;;;;8.00;99.90;;;;;;5053980;28;19913;-73
2022/02/18 04:37:39;;;;;;;;;;;7.90;99.90;;;;;;5053917;28;19909;-73
2022/02/18 04:40:05;;;;;;;;;;;8.00;99.90;;;;;;5037251;28;20079;-73
2022/02/18 04:42:31;;;;;;;;;;;8.00;99.90;;;;;;5054946;28;19979;-73
2022/02/18 04:44:57;;;;;;;;;;;8.10;99.90;;;;;;5053838;28;19956;-73
2022/02/18 04:47:22;;;;;;;;;;;8.10;99.90;;;;;;5053692;28;19915;-73
2022/02/18 04:49:48;;;;;;;;;;;8.00;99.90;;;;;;5053792;28;20291;-73
2022/02/18 04:52:15;;;;;;;;;;;8.00;99.90;;;;;;5053748;28;19978;-73
2022/02/18 04:54:41;;;;;;;;;;;7.90;99.90;;;;;;5055049;28;19913;-73
2022/02/18 04:57:06;;;;;;;;;;;7.90;99.90;;;;;;5053578;28;20372;-73
2022/02/18 04:59:32;;;;;;;;;;;7.90;99.90;;;;;;5054848;28;19988;-73
2022/02/18 05:01:58;;;;;;;;;;;8.00;99.90;;;;;;5054675;28;20422;-73
2022/02/18 05:04:24;;;;;;;;;;;8.00;99.90;;;;;;5054823;28;20078;-73
2022/02/18 05:06:50;;;;;;;;;;;8.00;99.90;;;;;;5054632;28;19915;-73
2022/02/18 05:09:15;;;;;;;;;;;8.00;99.90;;;;;;5054854;28;19932;-73
2022/02/18 05:11:41;;;;;;;;;;;8.00;99.90;;;;;;5054819;28;20369;-73
2022/02/18 05:14:06;;;;;;;;;;;8.10;99.90;;;;;;5054681;28;19909;-73
2022/02/18 05:16:32;;;;;;;;;;;8.10;99.90;;;;;;5054470;28;19913;-73
2022/02/18 05:18:58;;;;;;;;;;;8.10;99.90;;;;;;5054554;28;19909;-73
2022/02/18 05:21:24;;;;;;;;;;;8.10;99.90;;;;;;5054674;28;19940;-73
2022/02/18 05:23:50;;;;;;;;;;;8.10;99.90;;;;;;5054562;28;19912;-74
2022/02/18 05:26:15;;;;;;;;;;;8.10;99.90;;;;;;5054276;28;20051;-74
2022/02/18 05:28:41;;;;;;;;;;;8.10;99.90;;;;;;5054600;28;19947;-73
2022/02/18 05:31:07;;;;;;;;;;;8.10;99.90;;;;;;5054246;28;20279;-73
2022/02/18 05:33:32;;;;;;;;;;;8.00;99.90;;;;;;5054304;28;19989;-73
2022/02/18 05:35:58;;;;;;;;;;;8.00;99.90;;;;;;5054016;28;20007;-73
2022/02/18 05:38:25;;;;;;;;;;;8.00;99.90;;;;;;5053202;28;19909;-73
2022/02/18 05:40:51;;;;;;;;;;;8.00;99.90;;;;;;5054007;28;19948;-73
2022/02/18 05:43:16;;;;;;;;;;;8.10;99.90;;;;;;5053873;28;19990;-73
2022/02/18 05:45:42;;;;;;;;;;;8.10;99.90;;;;;;5068619;28;19999;-73
2022/02/18 05:48:08;;;;;;;;;;;8.10;99.90;;;;;;5036012;28;20351;-73
2022/02/18 05:50:33;;;;;;;;;;;8.10;99.90;;;;;;5053890;28;20004;-73
2022/02/18 05:52:59;;;;;;;;;;;8.20;99.90;;;;;;5053897;28;19909;-73
2022/02/18 05:55:25;;;;;;;;;;;8.20;99.90;;;;;;5052508;28;20343;-74
2022/02/18 05:57:50;;;;;;;;;;;8.10;99.90;;;;;;5053710;28;19916;-73
2022/02/18 06:00:16;;;;;;;;;;;8.10;99.90;;;;;;5053911;28;19913;-74
2022/02/18 06:02:43;;;;;;;;;;;8.10;99.90;;;;;;5053496;28;19975;-73
2022/02/18 06:05:10;;;;;;;;;;;8.10;99.90;;;;;;5035653;28;20269;-73
2022/02/18 06:07:36;;;;;;;;;;;7.90;99.90;;;;;;5052400;28;20007;-73
2022/02/18 06:10:02;;;;;;;;;;;7.90;99.90;;;;;;5053584;28;19947;-73
2022/02/18 06:12:28;;;;;;;;;;;7.90;99.90;;;;;;5053461;28;20276;-73
2022/02/18 06:14:53;;;;;;;;;;;8.00;99.90;;;;;;5068687;28;19916;-73
2022/02/18 06:17:19;;;;;;;;;;;8.10;99.90;;;;;;5053288;28;20281;-73
2022/02/18 06:19:45;;;;;;;;;;;8.10;99.90;;;;;;5052157;28;19913;-73
2022/02/18 06:22:11;;;;;;;;;;;8.10;99.90;;;;;;5051827;28;19958;-73
2022/02/18 06:24:36;;;;;;;;;;;8.10;99.90;;;;;;5053082;28;19912;-73
2022/02/18 06:27:02;;;;;;;;;;;7.90;99.90;;;;;;5052902;28;19909;-73
2022/02/18 06:29:28;;;;;;;;;;;7.90;99.90;;;;;;5053040;28;20292;-73
2022/02/18 06:31:54;;;;;;;;;;;7.90;99.90;;;;;;5052995;28;19966;-73
2022/02/18 06:34:19;;;;;;;;;;;7.90;99.90;;;;;;5034938;28;19920;-73
2022/02/18 06:36:45;;;;;;;;;;;7.80;99.90;;;;;;5051765;28;19932;-73
2022/02/18 06:39:10;;;;;;;;;;;7.90;99.90;;;;;;5051617;28;19984;-74
2022/02/18 06:41:36;;;;;;;;;;;7.90;99.90;;;;;;5050950;28;19909;-73
2022/02/18 06:44:02;;;;;;;;;;;7.70;99.90;;;;;;5051610;28;19924;-73
2022/02/18 06:46:28;;;;;;;;;;;7.60;99.90;;;;;;5047878;28;19909;-73
2022/02/18 06:48:53;;;;;;;;;;;7.40;99.90;;;;;;5043967;28;20062;-73
2022/02/18 06:51:19;;;;;;;;;;;7.50;99.90;;;;;;5041188;28;19909;-73
2022/02/18 06:53:45;;;;;;;;;;;7.50;99.90;;;;;;5031130;28;19963;-74
2022/02/18 06:56:10;;;;;;;;;;;7.50;99.90;;;;;;5036312;28;19909;-74
2022/02/18 06:58:36;;;;;;;;;;;7.50;99.90;;;;;;5051040;28;19908;-73
2022/02/18 07:01:02;;;;;;;;;;;7.60;99.90;;;;;;5052151;28;19961;-73
2022/02/18 07:03:28;;;;;;;;;;;7.60;99.90;;;;;;5051509;28;19920;-73
2022/02/18 07:05:55;;;;;;;;;;;7.40;99.90;;;;;;5033892;28;19909;-73
2022/02/18 07:08:21;;;;;;;;;;;7.40;99.90;;;;;;5036097;28;19963;-73
2022/02/18 07:10:47;;;;;;;;;;;7.60;99.90;;;;;;5031470;28;19909;-73
2022/02/18 07:13:12;;;;;;;;;;;7.70;99.90;;;;;;5031144;28;20347;-73
2022/02/18 07:15:38;;;;;;;;;;;7.70;99.90;;;;;;5035539;28;20258;-73
2022/02/18 07:18:04;;;;;;;;;;;7.60;99.90;;;;;;5051051;28;19999;-73
2022/02/18 07:20:29;;;;;;;;;;;7.60;99.90;;;;;;5046551;28;20480;-73
2022/02/18 07:22:55;;;;;;;;;;;7.70;99.90;;;;;;5032176;28;19923;-73
2022/02/18 07:25:22;;;;;;;;;;;7.70;99.90;;;;;;5034049;28;20000;-73
2022/02/18 07:27:48;;;;;;;;;;;7.70;99.90;;;;;;5039635;28;20187;-73
2022/02/18 07:30:14;;;;;;;;;;;7.80;99.90;;;;;;5052021;28;19915;-73
2022/02/18 07:32:40;;;;;;;;;;;7.80;99.90;;;;;;5050807;28;19909;-73
2022/02/18 07:35:07;;;;;;;;;;;7.80;99.90;;;;;;5036746;28;20288;-73
2022/02/18 07:37:32;;;;;;;;;;;7.90;99.90;;;;;;5032153;28;19916;-73
2022/02/18 07:39:58;;;;;;;;;;;7.90;99.90;;;;;;5031054;28;19909;-74
2022/02/18 07:42:24;;;;;;;;;;;8.00;99.90;;;;;;5036829;28;19923;-74
2022/02/18 07:44:50;;;;;;;;;;;8.20;99.90;;;;;;5050781;28;20059;-74
2022/02/18 07:47:16;;;;;;;;;;;8.30;99.90;;;;;;5050546;28;20399;-74
2022/02/18 07:49:43;;;;;;;;;;;8.40;99.90;;;;;;5052041;28;20312;-74
2022/02/18 07:52:09;;;;;;;;;;;8.40;99.90;;;;;;5050376;28;19909;-74
2022/02/18 07:54:36;;;;;;;;;;;8.40;99.90;;;;;;5047742;28;20403;-75
2022/02/18 07:57:02;;;;;;;;;;;8.40;99.90;;;;;;5047270;28;20245;-75
2022/02/18 07:59:28;;;;;;;;;;;8.50;99.90;;;;;;5049759;28;19920;-74
2022/02/18 08:01:54;;;;;;;;;;;8.50;99.90;;;;;;5032527;28;19910;-74
2022/02/18 08:04:19;;;;;;;;;;;8.60;99.90;;;;;;5030340;28;19940;-74
2022/02/18 08:06:45;;;;;;;;;;;8.70;99.90;;;;;;5031212;28;19999;-74
2022/02/18 08:09:11;;;;;;;;;;;8.70;99.90;;;;;;5035013;28;19915;-74
2022/02/18 08:11:36;;;;;;;;;;;8.60;99.90;;;;;;5034282;28;20372;-74
2022/02/18 08:14:02;;;;;;;;;;;8.60;99.90;;;;;;5034422;28;19909;-74
2022/02/18 08:16:31;;;;;;;;;;;8.60;99.90;;;;;;5042957;28;20011;-74
2022/02/18 08:18:57;;;;;;;;;;;8.60;99.90;;;;;;5043682;28;19917;-75
2022/02/18 08:21:23;;;;;;;;;;;8.70;99.90;;;;;;5036211;28;19916;-74
2022/02/18 08:23:52;;;;;;;;;;;8.70;99.90;;;;;;5041873;28;19917;-74
2022/02/18 08:26:21;;;;;;;;;;;8.80;99.90;;;;;;5036569;28;19916;-74
2022/02/18 08:28:47;;;;;;;;;;;8.70;99.90;;;;;;5040458;28;19916;-74
2022/02/18 08:31:13;;;;;;;;;;;8.70;99.90;;;;;;5043535;28;20279;-74
2022/02/18 08:33:39;;;;;;;;;;;8.70;99.90;;;;;;5043845;28;19909;-74
2022/02/18 08:36:07;;;;;;;;;;;8.70;99.90;;;;;;5049264;28;19913;-74
2022/02/18 08:38:34;;;;;;;;;;;8.80;99.90;;;;;;5049157;28;20365;-74
2022/02/18 08:40:59;;;;;;;;;;;8.80;99.90;;;;;;5039535;28;19909;-75
2022/02/18 08:43:31;;;;;;;;;;;8.80;99.90;;;;;;5044308;28;20387;-75
2022/02/18 08:46:08;;;;;;;;;;;8.70;99.90;;;;;;5039296;28;19932;-75
2022/02/18 08:48:33;;;;;;;;;;;8.90;99.90;;;;;;5038040;28;19909;-75
2022/02/18 08:50:59;;;;;;;;;;;9.00;99.90;;;;;;5053594;28;19917;-75
2022/02/18 08:53:25;;;;;;;;;;;9.10;99.90;;;;;;5046955;28;20850;-73
2022/02/18 08:55:51;;;;;;;;;;;9.10;99.90;;;;;;5039142;28;19913;-74
2022/02/18 08:58:17;;;;;;;;;;;9.10;99.90;;;;;;5038472;28;20007;-75
2022/02/18 09:00:42;;;;;;;;;;;9.10;99.90;;;;;;5047961;28;19948;-75
2022/02/18 09:03:09;;;;;;;;;;;9.30;99.90;;;;;;5035365;28;19991;-75
2022/02/18 09:05:35;;;;;;;;;;;9.40;99.90;;;;;;5045172;28;19912;-74
2022/02/18 09:08:01;;;;;;;;;;;9.30;99.90;;;;;;5037148;28;19992;-74
2022/02/18 09:10:26;;;;;;;;;;;9.40;99.90;;;;;;5032231;28;20479;-74
2022/02/18 09:12:52;;;;;;;;;;;9.30;99.90;;;;;;5040070;28;19909;-74
2022/02/18 09:15:19;;;;;;;;;;;9.40;99.90;;;;;;5037691;28;19920;-74
2022/02/18 09:17:45;;;;;;;;;;;9.40;99.90;;;;;;5061168;28;19971;-74
2022/02/18 09:20:10;;;;;;;;;;;9.40;99.90;;;;;;5050663;28;19961;-74
2022/02/18 09:22:36;;;;;;;;;;;9.40;99.90;;;;;;5044052;28;19917;-75
2022/02/18 09:25:02;;;;;;;;;;;9.60;99.90;;;;;;5047123;28;19920;-75
2022/02/18 09:27:28;;;;;;;;;;;9.70;99.90;;;;;;5039803;28;19988;-75
2022/02/18 09:29:53;;;;;;;;;;;9.70;99.90;;;;;;5041279;28;19909;-75
2022/02/18 09:32:20;;;;;;;;;;;9.80;99.90;;;;;;5045892;28;20000;-75
2022/02/18 09:34:45;;;;;;;;;;;10.00;99.90;;;;;;5034703;28;19917;-75
2022/02/18 09:37:16;;;;;;;;;;;10.20;99.90;;;;;;5035474;28;20365;-75
2022/02/18 09:39:42;;;;;;;;;;;10.30;99.90;;;;;;5044388;28;20284;-75
2022/02/18 09:42:10;;;;;;;;;;;10.40;99.90;;;;;;5043140;28;19916;-75
2022/02/18 09:44:36;;;;;;;;;;;10.50;99.90;;;;;;5036944;28;19916;-75
2022/02/18 09:47:02;;;;;;;;;;;10.50;99.90;;;;;;5042774;28;19909;-75
2022/02/18 09:49:28;;;;;;;;;;;10.60;99.90;;;;;;5048331;28;19943;-75
2022/02/18 09:51:54;;;;;;;;;;;10.70;99.90;;;;;;5040093;28;19955;-75
2022/02/18 09:54:20;;;;;;;;;;;10.70;99.10;;;;;;5040565;28;20295;-75
2022/02/18 09:56:47;;;;;;;;;;;10.80;99.00;;;;;;5045922;28;19909;-75
2022/02/18 09:59:13;;;;;;;;;;;10.90;97.50;;;;;;5040417;28;19908;-75
2022/02/18 10:01:39;;;;;;;;;;;10.80;95.40;;;;;;5029441;28;20326;-75
2022/02/18 10:04:04;;;;;;;;;;;10.90;95.20;;;;;;5032106;28;20344;-75
2022/02/18 10:06:30;;;;;;;;;;;10.90;95.60;;;;;;5040359;28;19951;-75
2022/02/18 10:08:59;;;;;;;;;;;10.90;95.50;;;;;;5038328;28;19909;-77
2022/02/18 10:11:25;;;;;;;;;;;11.00;95.40;;;;;;5050602;28;19999;-75
2022/02/18 10:13:53;;;;;;;;;;;10.90;94.80;;;;;;5036260;28;20003;-75
2022/02/18 10:16:25;;;;;;;;;;;11.00;95.10;;;;;;5046311;28;20292;-74
2022/02/18 10:18:52;;;;;;;;;;;11.10;95.00;;;;;;5037325;28;20463;-74
2022/02/18 10:21:35;;;;;;;;;;;11.10;94.70;;;;;;5045658;28;20368;-75
2022/02/18 10:24:12;;;;;;;;;;;11.10;94.90;;;;;;5041559;28;19936;-74
2022/02/18 10:26:44;;;;;;;;;;;11.20;94.70;;;;;;5033074;28;19909;-73
2022/02/18 10:29:16;;;;;;;;;;;11.00;96.00;;;;;;5040600;28;19915;-74
2022/02/18 10:31:42;;;;;;;;;;;11.10;97.00;;;;;;5044845;28;20334;-74
2022/02/18 10:34:09;;;;;;;;;;;11.10;97.10;;;;;;5044065;28;19910;-75
2022/02/18 10:36:39;;;;;;;;;;;11.20;96.80;;;;;;5030077;28;19916;-75
2022/02/18 10:39:24;;;;;;;;;;;11.30;95.40;;;;;;5032346;28;19913;-74
2022/02/18 10:41:52;;;;;;;;;;;11.30;94.10;;;;;;5031804;28;19916;-74
2022/02/18 10:44:18;;;;;;;;;;;11.40;93.80;;;;;;5030183;28;20323;-73
2022/02/18 10:46:44;;;;;;;;;;;11.70;91.90;;;;;;5032418;28;19909;-74
2022/02/18 10:49:19;;;;;;;;;;;11.70;90.30;;;;;;5030991;28;19913;-74
2022/02/18 10:51:46;;;;;;;;;;;11.70;90.60;;;;;;5031229;28;19924;-75
2022/02/18 10:54:11;;;;;;;;;;;11.90;89.90;;;;;;5014635;28;20381;-74
2022/02/18 10:56:38;;;;;;;;;;;11.90;89.80;;;;;;5030889;28;20035;-76
2022/02/18 10:59:07;;;;;;;;;;;11.90;90.60;;;;;;5032412;28;19968;-76
2022/02/18 11:01:42;;;;;;;;;;;12.00;90.30;;;;;;5031231;28;19952;-75
2022/02/18 11:04:08;;;;;;;;;;;11.90;90.00;;;;;;5030565;28;20339;-74
2022/02/18 11:06:36;;;;;;;;;;;11.90;90.10;;;;;;5014173;28;19959;-73
2022/02/18 11:09:06;;;;;;;;;;;11.80;91.10;;;;;;5032075;28;19909;-74
2022/02/18 11:11:32;;;;;;;;;;;11.70;92.20;;;;;;5031972;28;19936;-74
2022/02/18 11:13:59;;;;;;;;;;;11.60;92.60;;;;;;5031837;28;19976;-74
2022/02/18 11:16:26;;;;;;;;;;;11.80;92.60;;;;;;5031739;28;19920;-74
2022/02/18 11:18:51;;;;;;;;;;;11.70;92.10;;;;;;5030741;28;19909;-74
2022/02/18 11:21:17;;;;;;;;;;;11.70;92.00;;;;;;5031693;28;19979;-73
2022/02/18 11:23:43;;;;;;;;;;;11.60;91.80;;;;;;5031769;28;19924;-73
2022/02/18 11:26:14;;;;;;;;;;;11.60;92.00;;;;;;5031735;28;19909;-74
2022/02/18 11:28:40;;;;;;;;;;;11.60;92.50;;;;;;5031662;28;19999;-73
2022/02/18 11:31:08;;;;;;;;;;;11.60;92.30;;;;;;5030478;28;19955;-74
2022/02/18 11:33:41;;;;;;;;;;;11.70;92.30;;;;;;5031724;28;19916;-74
2022/02/18 11:36:25;;;;;;;;;;;11.80;92.20;;;;;;5030273;28;20035;-74
2022/02/18 11:38:58;;;;;;;;;;;11.90;91.70;;;;;;5031698;28;19913;-74
2022/02/18 11:41:23;;;;;;;;;;;12.10;92.00;;;;;;5031565;28;19916;-74
2022/02/18 11:43:49;;;;;;;;;;;12.10;92.00;;;;;;5034986;28;19913;-74
2022/02/18 11:46:22;;;;;;;;;;;12.00;92.20;;;;;;5035495;28;20387;-74
2022/02/18 11:48:49;;;;;;;;;;;12.00;92.00;;;;;;5034080;28;19909;-74
2022/02/18 11:51:23;;;;;;;;;;;11.90;92.30;;;;;;5081901;22;20002;-88
2022/02/18 11:54:08;;;;;;;;;;;12.10;92.40;;;;;;5065870;28;19909;-88
2022/02/18 11:57:01;;;;;;;;;;;12.00;92.70;;;;;;5058790;28;20309;-89
2022/02/18 11:59:48;;;;;;;;;;;12.00;93.00;;;;;;5040609;28;19919;-89
2022/02/18 12:02:14;;;;;;;;;;;12.00;93.20;;;;;;5046165;28;19984;-90
2022/02/18 12:05:02;;;;;;;;;;;12.10;93.10;;;;;;5055615;28;19932;-91
2022/02/18 12:07:59;;;;;;;;;;;12.10;93.50;;;;;;5042869;28;19908;-90
2022/02/18 12:10:27;;;;;;;;;;;12.10;93.70;;;;;;5048559;28;19909;-90
2022/02/18 12:13:02;;;;;;;;;;;12.10;93.10;;;;;;5041142;28;19915;-89
2022/02/18 12:15:55;;;;;;;;;;;11.90;92.50;;;;;;5043248;28;19963;-89
2022/02/18 12:18:32;;;;;;;;;;;12.00;92.90;;;;;;5041861;28;19931;-89
2022/02/18 12:21:17;;;;;;;;;;;12.00;93.20;;;;;;5043238;28;19915;-89
2022/02/18 12:31:09;;;;;;;;;;;;;;;;;;;;;
2022/02/18 12:37:03;;;;;;;;;;;12.30;93.30;;;;;;5056810;28;20367;-91
2022/02/18 12:39:38;;;;;;;;;;;12.40;93.80;;;;;;5043036;28;19908;-90
2022/02/18 12:42:39;;;;;;;;;;;;;;;;;;;;;
2022/02/18 12:52:05;;;;;;;;;;;12.20;92.60;;;;;;5079976;22;19925;-72
2022/02/18 12:54:50;;;;;;;;;;;12.20;91.30;;;;;;5056197;28;19909;-73
2022/02/18 12:57:16;;;;;;;;;;;12.10;90.90;;;;;;5072495;28;19959;-73
2022/02/18 12:59:43;;;;;;;;;;;12.10;90.40;;;;;;5051725;28;20262;-73
2022/02/18 13:02:09;;;;;;;;;;;12.10;90.20;;;;;;5052183;28;20289;-74
2022/02/18 13:04:34;;;;;;;;;;;12.10;90.20;;;;;;5067353;28;19951;-74
2022/02/18 13:07:00;;;;;;;;;;;12.10;90.60;;;;;;5056096;28;19908;-75
2022/02/18 13:09:28;;;;;;;;;;;12.10;90.50;;;;;;5072181;28;20432;-74
2022/02/18 13:11:54;;;;;;;;;;;12.00;91.80;;;;;;5072421;28;19958;-74
2022/02/18 13:14:22;;;;;;;;;;;12.00;91.20;;;;;;5053563;28;19909;-73
2022/02/18 13:16:48;;;;;;;;;;;12.10;91.50;;;;;;5051850;28;20152;-73
2022/02/18 13:19:14;;;;;;;;;;;12.10;91.20;;;;;;5052454;28;20003;-73
2022/02/18 13:21:39;;;;;;;;;;;12.10;90.70;;;;;;5053831;28;20003;-73
2022/02/18 13:24:05;;;;;;;;;;;12.20;90.70;;;;;;5053338;28;20403;-73
2022/02/18 13:26:31;;;;;;;;;;;12.20;91.00;;;;;;5052474;28;20003;-73
2022/02/18 13:28:57;;;;;;;;;;;12.30;90.30;;;;;;5053867;28;19947;-73
2022/02/18 13:31:23;;;;;;;;;;;12.30;90.10;;;;;;5053714;28;19994;-73
2022/02/18 13:33:50;;;;;;;;;;;12.40;90.20;;;;;;5053500;28;20376;-73
2022/02/18 13:36:17;;;;;;;;;;;12.30;90.10;;;;;;5053402;28;19963;-73
2022/02/18 13:38:47;;;;;;;;;;;12.30;89.10;;;;;;5053643;28;19916;-73
2022/02/18 13:41:12;;;;;;;;;;;12.40;89.10;;;;;;5053594;28;19912;-73
2022/02/18 13:43:58;;;;;;;;;;;12.40;89.00;;;;;;5053207;28;19962;-73
2022/02/18 13:46:28;;;;;;;;;;;12.40;89.30;;;;;;5052971;28;19916;-73
2022/02/18 13:48:55;;;;;;;;;;;12.50;90.00;;;;;;5052190;28;19909;-73
2022/02/18 13:51:28;;;;;;;;;;;12.50;90.40;;;;;;5053454;28;20016;-73
2022/02/18 13:53:54;;;;;;;;;;;12.40;90.40;;;;;;5053402;28;19908;-73
2022/02/18 13:56:22;;;;;;;;;;;12.40;90.60;;;;;;5053150;28;19963;-73
2022/02/18 13:58:48;;;;;;;;;;;12.40;90.50;;;;;;5053301;28;20003;-73
2022/02/18 14:01:14;;;;;;;;;;;12.40;90.60;;;;;;5072568;28;19947;-73
2022/02/18 14:03:56;;;;;;;;;;;12.40;90.80;;;;;;5073214;28;20418;-73
2022/02/18 14:06:30;;;;;;;;;;;12.30;91.20;;;;;;5072446;28;19915;-73
2022/02/18 14:08:59;;;;;;;;;;;12.30;90.90;;;;;;5072932;28;20399;-73
2022/02/18 14:11:25;;;;;;;;;;;12.40;90.80;;;;;;5073204;28;19944;-74
2022/02/18 14:13:54;;;;;;;;;;;12.40;90.10;;;;;;5072990;28;19915;-74
2022/02/18 14:16:28;;;;;;;;;;;12.40;90.50;;;;;;5073270;28;19909;-74
2022/02/18 14:18:55;;;;;;;;;;;12.40;90.50;;;;;;5073001;28;19909;-74
2022/02/18 14:21:22;;;;;;;;;;;12.40;90.40;;;;;;5071767;28;19909;-74
2022/02/18 14:23:48;;;;;;;;;;;12.40;89.30;;;;;;5072477;28;20384;-74
2022/02/18 14:26:14;;;;;;;;;;;12.40;90.00;;;;;;5072454;28;19908;-74
2022/02/18 14:28:44;;;;;;;;;;;12.40;89.00;;;;;;5072716;28;20322;-74
2022/02/18 14:31:15;;;;;;;;;;;12.40;89.80;;;;;;5072455;28;19920;-74
2022/02/18 14:33:49;;;;;;;;;;;12.40;89.00;;;;;;5072503;28;20375;-74
2022/02/18 14:36:26;;;;;;;;;;;12.40;90.00;;;;;;5072305;28;19908;-74
2022/02/18 14:38:52;;;;;;;;;;;12.40;90.10;;;;;;5072526;28;19930;-74
2022/02/18 14:41:18;;;;;;;;;;;12.40;89.60;;;;;;5072337;28;19908;-74
2022/02/18 14:43:50;;;;;;;;;;;12.40;90.20;;;;;;5072120;28;19920;-74
2022/02/18 14:46:16;;;;;;;;;;;12.30;90.30;;;;;;5071819;28;19916;-75